Startpagina
METAR-TAF:

METAR-TAF

Vliegvelden :

Aeropuerto de Alicante-Elche

Alicante, Spanje

breedte: 38-17N, lengte: 000-33W, hoogte: 43 m

Actueel weer

Dit bericht is 21 minuten geleden gemaakt, om 08:30 UTC
Wind 3 kt uit het westzuidwesten, variërend tussen het zuidzuidwesten en het westen
Temperatuur 9°C
Vochtigheid 76%
Druk 1026 hPa
Zicht 10 km of meer
geen wolken onder 1500 m en geen cumulonimbus

METAR: LEAL 270830Z 25003KT 210V280 CAVOK 09/05 Q1026 NOSIG

Tijdstip: 09:51 (08:51 UTC)

Verwachting

Dit bericht is 3 uur en het 51 minuten geleden gemaakt, om 05:00 UTC
Verwachting geldig van 27 om 06 UTC tot 28 om 06 UTC
Wind 4 kt uit variabele richting
Zicht 10 km of meer
geen wolken onder 1500 m en geen cumulonimbus
Wijzigt naar
van 27 om 10 UTC tot 27 om 12 UTC
Wind 10 kt uit het zuiden
Wijzigt naar
van 27 om 17 UTC tot 27 om 19 UTC
Wind 3 kt uit variabele richting

TAF: LEAL 270500Z 2706/2806 VRB04KT CAVOK TX18/2712Z TN07/2805Z BECMG 2710/2712 19010KT BECMG 2717/2719 VRB03KT

Waarnemingen en weersverwachtingen van meer dan 4000 vliegvelden (METAR en TAF).

De beschikbare stations zijn de gele en rode punten op de kaart.

Ga met uw muis naar het station om de naam te zien.

Klik dan om waarnemingen en weersverwachtingen te zien.

kaart wijzigen: klik op de groene knoppen met een zwart kruis om in te zoomen, op de groene knop met een streepje om uit te zoomen of op de groene pijlen voor aangrenzende kaarten.


METAR-TAF: